Flight Track Log - Related Links

Times and Time Zones

All times are in EST time to prevent confusion due to time zone crossing. See the DAL3995 flight status page for this flight to view local times or setup timezone preferences in your user account.


Time Position Orientation Groundspeed Altitude Reporting Facility
EST Latitude Longitude Course Direction KTS MPH feet Rate Location/Type
Fri 04:48:51 PM 33.6331 -84.3881 57° Northeast 377 434 2,500  Level Atlanta Center
Fri 04:49:51 PM 33.6333 -84.3083 90° East 295 339 4,300 2,450 Climbing Atlanta Center
Fri 04:50:51 PM 33.6333 -84.2183 90° East 263 303 7,400 2,950 Climbing Atlanta Center
Fri 04:51:51 PM 33.6336 -84.1211 90° East 315 362 10,200 2,550 Climbing Atlanta Center
Fri 04:52:51 PM 33.6817 -84.0414 54° Northeast 294 338 12,500 2,200 Climbing Atlanta Center
Fri 04:53:51 PM 33.7419 -83.9614 48° Northeast 304 350 14,600 1,250 Climbing Atlanta Center
Fri 04:54:00 PM 33.9032 -83.9714 57° Northeast  Level Estimated
Fri 04:54:51 PM 33.8067 -83.8664 51° Northeast 345 397 15,000  Level Atlanta Center
Fri 04:55:51 PM 33.8711 -83.7736 50° Northeast 384 442 15,000  Level Atlanta Center
Fri 04:56:51 PM 33.9461 -83.6608 51° Northeast 415 478 15,000  Level Atlanta Center
Fri 04:57:51 PM 34.0208 -83.5475 51° Northeast 424 488 15,000  Level Atlanta Center
Fri 04:58:51 PM 34.0953 -83.4367 51° Northeast 424 488 15,000  Level Atlanta Center
Fri 04:59:51 PM 34.1719 -83.3233 51° Northeast 429 494 15,000  Level Atlanta Center
Fri 05:00:51 PM 34.2464 -83.2094 52° Northeast 428 493 15,000  Level Atlanta Center
Fri 05:01:51 PM 34.3208 -83.0981 51° Northeast 428 493 15,000 -150 Level Atlanta Center
Fri 05:02:51 PM 34.3950 -82.9814 52° Northeast 428 493 14,700 -1,200 Descending Atlanta Center
Fri 05:03:51 PM 34.4711 -82.8672 51° Northeast 422 486 12,600 -2,150 Descending Atlanta Center
Fri 05:04:51 PM 34.5308 -82.7831 49° Northeast 375 432 10,400 -1,950 Descending Atlanta Center
Fri 05:05:51 PM 34.5781 -82.7017 55° Northeast 335 386 8,700 -1,700 Descending Atlanta Center
Fri 05:06:51 PM 34.6125 -82.6153 64° Northeast 298 343 7,000 -1,350 Descending Atlanta Center
Fri 05:07:51 PM 34.6492 -82.5339 61° Northeast 285 328 6,000 -1,200 Descending Atlanta Center
Fri 05:08:51 PM 34.6814 -82.4550 64° Northeast 275 316 4,600 -1,500 Descending Atlanta Center
Fri 05:09:51 PM 34.7139 -82.3761 63° Northeast 258 297 3,000 -800 Descending Atlanta Center
Fri 05:10:51 PM 34.7589 -82.3247 43° Northeast 235 270 3,000 -100 Level Atlanta Center
Fri 05:11:51 PM 34.8044 -82.2908 31° Northeast 201 231 2,800 -200 Descending Atlanta Center
Fri 05:13:00 PM 34.8833 -82.2167 59° Northeast  Level FlightAware Approximate
Fri 05:20:00 PM 34.8957 -82.2189 59° Northeast  Level Estimated
Fri 05:21:00 PM 34.8957 -82.2189 59° Northeast  Level Estimated

Login

Don't have an account? Register now (free) for customized features, flight alerts, and more!